LIBDLFOB

Guest
Details From LIBD - Bari Palese Macchie
To LFOB - Beauvais-Tille
Flight Number -
Tags decoded
Created
Modified
Stats Distance 794 nm / 1,470 km
Max Altitude 0 ft / 0 m
Waypoints 4
Social Downloads 2
Likes 0
Share

Download

Looking for another format? Having issues loading an existing format? Contact us
Advertisement - Login to hide

Notes

Requested: LIBD 43 VIE ANC LFOB Unmatched points: 43

Route

LIBD VIE ANC LFOB

ID Type Via Altitude (ft/m) Position (lat/lon) Dist (leg/tot) Name
O LIBD APT - 0 / 0 41.13787 / 16.75832 - / 0 nm Bari Palese Macchie
VIE VOR - 0 / 0 41.91274 / 16.04914 56 / 56 nm VIESTE VOR-DME
ANC NDB - 0 / 0 43.58667 / 13.47222 151 / 208 nm ANCONA NDB
O LFOB APT - 0 / 0 49.45600 / 2.11891 585 / 793 nm Beauvais-Tille

Altitude Profile

Advertisement - Login to hide

Weather


0- 5 10 15 20 25 30 35+ Temperature / °C

Clouds and Precipitation
Forecast for 2021-03-22 12:00 UTC. Updated 2 months ago

Ground ~20,000 ft ~40,000 ft Winds

LIBD

Details ICAO LIBD (BRI)
Name Bari-Palese "Karol Wojtyla"
Region Italy
Timezone Europe/Rome (UTC+2.0)
Stats Elevation 173 ft / 53 m (AMSL)
Location 41.137900° 16.758300°
Runways 1
Magnetic Variation 4.085° E

METAR

LIBD 081220Z 35007KT 310V050 CAVOK 20/11 Q1018

Decode

TAF

TAF LIBD 081100Z 0812/0912 36012KT CAVOK BECMG 0820/0822 28010KT= TAF LIBP 081100Z 0812/0912 02010KT CAVOK BECMG 0816/0818 VRB05KT

Decode

Departure Runways

ID Width Length Bearing (true/mag) Surface Threshold Overrun Markings Lighting
07 148 ft / 45 m 9,260 ft / 2,823 m 69.40° / 65.31° ASPHALT 1,240 ft / 378 m 0 ft / 0 m PREC-APP CENTERLINE EDGE THRESHOLD ALSF-II REIL-OMNI
25 148 ft / 45 m 9,260 ft / 2,823 m 249.42° / 245.33° ASPHALT 0 ft / 0 m 0 ft / 0 m PREC-APP CENTERLINE EDGE THRESHOLD SALS REIL-OMNI

LFOB

Details ICAO LFOB (BVA)
Name Beauvais Tille
Region France
Timezone Europe/Paris (UTC+2.0)
Stats Elevation 359 ft / 109 m (AMSL)
Location 49.456000° 2.118930°
Runways 2
Magnetic Variation 0.936° E

METAR

LFOB 081230Z AUTO 21019KT 180V240 9999 BKN028 BKN034 BKN040 18/12 Q1010 TEMPO 21017G27KT

Decode

TAF

TAF LFOB 081100Z 0812/0912 21013KT 9999 BKN030 TEMPO 0812/0816 21017G27KT BECMG 0821/0824 VRB02KT TEMPO 0904/0912 SCT090CB BECMG 0906/0909 18013KT

Decode

Destination Runways

ID Width Length Bearing (true/mag) Surface Threshold Overrun Markings Lighting
04 59 ft / 18 m 2,320 ft / 707 m 41.41° / 40.47° ASPHALT 0 ft / 0 m 0 ft / 0 m VISUAL
12 148 ft / 45 m 7,952 ft / 2,424 m 123.73° / 122.80° ASPHALT 144 ft / 44 m 0 ft / 0 m PREC-APP CENTERLINE EDGE THRESHOLD ALSF-II TDZ
22 59 ft / 18 m 2,320 ft / 707 m 221.41° / 220.48° ASPHALT 0 ft / 0 m 0 ft / 0 m VISUAL
30 148 ft / 45 m 7,952 ft / 2,424 m 303.75° / 302.82° ASPHALT 0 ft / 0 m 0 ft / 0 m PREC-APP CENTERLINE EDGE THRESHOLD ALSF-I

Approach Navaids

Runway Type Ident Frequency Range Bearing (true/mag) Slope Elevation
12 GS BVT 111.15 MHz 10 nm / 19 km 123.75° / 122.81 ° 3.00° 359 ft / 109 m (AMSL)
12 DME BVT 111.15 MHz 18 nm / 33 km - - 344 ft / 105 m (AMSL)
12 LOC-ILS BVT 111.15 MHz 18 nm / 33 km 123.75° / 122.81 ° - 359 ft / 109 m (AMSL)
30 DME BI 109.95 MHz 18 nm / 33 km - - 303 ft / 92 m (AMSL)
30 LOC-LOC BI 109.95 MHz 18 nm / 33 km 303.75° / 302.81 ° - 359 ft / 109 m (AMSL)

Popular Alternatives